sensor_id;sensor_type;location;lat;lon;timestamp;P1;durP1;ratioP1;P2;durP2;ratioP2
1020;SDS011;499;42.648;23.270;2023-04-03T00:02:03;1.00;;;0.90;;
1020;SDS011;499;42.648;23.270;2023-04-03T00:04:30;0.90;;;0.70;;
1020;SDS011;499;42.648;23.270;2023-04-03T00:06:57;1.00;;;0.80;;
1020;SDS011;499;42.648;23.270;2023-04-03T00:09:25;1.03;;;0.93;;
1020;SDS011;499;42.648;23.270;2023-04-03T00:11:52;1.00;;;0.90;;
1020;SDS011;499;42.648;23.270;2023-04-03T00:14:19;0.97;;;0.80;;
1020;SDS011;499;42.648;23.270;2023-04-03T00:16:46;0.97;;;0.70;;
1020;SDS011;499;42.648;23.270;2023-04-03T00:19:13;1.00;;;0.80;;
1020;SDS011;499;42.648;23.270;2023-04-03T00:21:40;1.00;;;0.80;;
1020;SDS011;499;42.648;23.270;2023-04-03T00:24:07;0.90;;;0.70;;
1020;SDS011;499;42.648;23.270;2023-04-03T00:26:35;1.00;;;0.80;;
1020;SDS011;499;42.648;23.270;2023-04-03T00:29:02;1.00;;;0.80;;
1020;SDS011;499;42.648;23.270;2023-04-03T00:31:29;1.00;;;0.80;;
1020;SDS011;499;42.648;23.270;2023-04-03T00:33:56;1.00;;;0.80;;
1020;SDS011;499;42.648;23.270;2023-04-03T00:36:24;1.20;;;1.10;;
1020;SDS011;499;42.648;23.270;2023-04-03T00:38:51;0.93;;;0.83;;
1020;SDS011;499;42.648;23.270;2023-04-03T00:41:18;1.00;;;0.80;;
1020;SDS011;499;42.648;23.270;2023-04-03T00:43:47;1.00;;;0.70;;
1020;SDS011;499;42.648;23.270;2023-04-03T00:46:15;1.00;;;0.80;;
1020;SDS011;499;42.648;23.270;2023-04-03T00:48:42;0.90;;;0.70;;
1020;SDS011;499;42.648;23.270;2023-04-03T00:51:12;1.00;;;0.70;;
1020;SDS011;499;42.648;23.270;2023-04-03T00:53:41;0.90;;;0.80;;
1020;SDS011;499;42.648;23.270;2023-04-03T00:56:12;1.00;;;0.80;;
1020;SDS011;499;42.648;23.270;2023-04-03T00:58:43;1.00;;;0.80;;
1020;SDS011;499;42.648;23.270;2023-04-03T01:01:17;1.00;;;0.80;;
1020;SDS011;499;42.648;23.270;2023-04-03T01:03:48;0.90;;;0.70;;
1020;SDS011;499;42.648;23.270;2023-04-03T01:06:16;1.00;;;0.80;;
1020;SDS011;499;42.648;23.270;2023-04-03T01:08:45;0.90;;;0.70;;
1020;SDS011;499;42.648;23.270;2023-04-03T01:11:15;0.90;;;0.70;;
1020;SDS011;499;42.648;23.270;2023-04-03T01:13:42;0.90;;;0.70;;
1020;SDS011;499;42.648;23.270;2023-04-03T01:16:10;1.00;;;0.80;;
1020;SDS011;499;42.648;23.270;2023-04-03T01:18:39;1.07;;;0.97;;
1020;SDS011;499;42.648;23.270;2023-04-03T01:24:00;0.90;;;0.70;;
1020;SDS011;499;42.648;23.270;2023-04-03T01:26:39;0.90;;;0.80;;
1020;SDS011;499;42.648;23.270;2023-04-03T01:29:06;0.93;;;0.80;;
1020;SDS011;499;42.648;23.270;2023-04-03T01:34:23;0.90;;;0.70;;
1020;SDS011;499;42.648;23.270;2023-04-03T01:36:52;0.90;;;0.70;;
1020;SDS011;499;42.648;23.270;2023-04-03T01:39:19;0.90;;;0.80;;
1020;SDS011;499;42.648;23.270;2023-04-03T01:41:47;1.00;;;0.87;;
1020;SDS011;499;42.648;23.270;2023-04-03T01:44:14;1.00;;;0.80;;
1020;SDS011;499;42.648;23.270;2023-04-03T01:46:41;1.00;;;0.80;;
1020;SDS011;499;42.648;23.270;2023-04-03T01:49:09;0.90;;;0.70;;
1020;SDS011;499;42.648;23.270;2023-04-03T01:51:37;0.90;;;0.70;;
1020;SDS011;499;42.648;23.270;2023-04-03T01:54:04;1.00;;;0.80;;
1020;SDS011;499;42.648;23.270;2023-04-03T01:56:31;0.90;;;0.70;;
1020;SDS011;499;42.648;23.270;2023-04-03T01:58:58;0.90;;;0.70;;
1020;SDS011;499;42.648;23.270;2023-04-03T02:01:25;0.90;;;0.70;;
1020;SDS011;499;42.648;23.270;2023-04-03T02:03:52;0.90;;;0.70;;
1020;SDS011;499;42.648;23.270;2023-04-03T02:06:20;0.90;;;0.60;;
1020;SDS011;499;42.648;23.270;2023-04-03T02:08:47;0.90;;;0.80;;
1020;SDS011;499;42.648;23.270;2023-04-03T02:11:14;1.03;;;0.90;;
1020;SDS011;499;42.648;23.270;2023-04-03T02:13:41;0.93;;;0.80;;
1020;SDS011;499;42.648;23.270;2023-04-03T02:16:09;0.90;;;0.70;;
1020;SDS011;499;42.648;23.270;2023-04-03T02:18:37;0.90;;;0.70;;
1020;SDS011;499;42.648;23.270;2023-04-03T02:21:04;0.90;;;0.70;;
1020;SDS011;499;42.648;23.270;2023-04-03T02:23:33;0.90;;;0.70;;
1020;SDS011;499;42.648;23.270;2023-04-03T02:26:05;0.90;;;0.70;;
1020;SDS011;499;42.648;23.270;2023-04-03T02:28:33;1.00;;;0.90;;
1020;SDS011;499;42.648;23.270;2023-04-03T02:31:00;0.90;;;0.80;;
1020;SDS011;499;42.648;23.270;2023-04-03T02:33:27;1.00;;;0.80;;
1020;SDS011;499;42.648;23.270;2023-04-03T02:35:55;0.90;;;0.70;;
1020;SDS011;499;42.648;23.270;2023-04-03T02:38:22;0.90;;;0.80;;
1020;SDS011;499;42.648;23.270;2023-04-03T02:40:52;0.90;;;0.70;;
1020;SDS011;499;42.648;23.270;2023-04-03T02:43:19;1.00;;;0.80;;
1020;SDS011;499;42.648;23.270;2023-04-03T02:45:46;0.90;;;0.80;;
1020;SDS011;499;42.648;23.270;2023-04-03T02:48:13;1.00;;;0.80;;
1020;SDS011;499;42.648;23.270;2023-04-03T02:50:41;1.00;;;0.90;;
1020;SDS011;499;42.648;23.270;2023-04-03T02:53:08;1.20;;;1.10;;
1020;SDS011;499;42.648;23.270;2023-04-03T02:55:35;0.93;;;0.80;;
1020;SDS011;499;42.648;23.270;2023-04-03T02:58:04;1.00;;;0.80;;
1020;SDS011;499;42.648;23.270;2023-04-03T03:00:31;0.93;;;0.83;;
1020;SDS011;499;42.648;23.270;2023-04-03T03:02:58;1.00;;;0.90;;
1020;SDS011;499;42.648;23.270;2023-04-03T03:05:26;1.00;;;0.80;;
1020;SDS011;499;42.648;23.270;2023-04-03T03:07:53;0.90;;;0.80;;
1020;SDS011;499;42.648;23.270;2023-04-03T03:10:20;0.90;;;0.80;;
1020;SDS011;499;42.648;23.270;2023-04-03T03:12:48;0.97;;;0.80;;
1020;SDS011;499;42.648;23.270;2023-04-03T03:15:17;0.90;;;0.80;;
1020;SDS011;499;42.648;23.270;2023-04-03T03:17:44;0.90;;;0.80;;
1020;SDS011;499;42.648;23.270;2023-04-03T03:20:12;0.93;;;0.80;;
1020;SDS011;499;42.648;23.270;2023-04-03T03:22:40;1.00;;;0.90;;
1020;SDS011;499;42.648;23.270;2023-04-03T03:25:08;0.90;;;0.80;;
1020;SDS011;499;42.648;23.270;2023-04-03T03:27:35;1.00;;;0.90;;
1020;SDS011;499;42.648;23.270;2023-04-03T03:30:02;0.90;;;0.80;;
1020;SDS011;499;42.648;23.270;2023-04-03T03:32:32;0.90;;;0.80;;
1020;SDS011;499;42.648;23.270;2023-04-03T03:34:59;0.90;;;0.80;;
1020;SDS011;499;42.648;23.270;2023-04-03T03:37:26;0.90;;;0.80;;
1020;SDS011;499;42.648;23.270;2023-04-03T03:39:53;0.90;;;0.80;;
1020;SDS011;499;42.648;23.270;2023-04-03T03:42:20;0.90;;;0.70;;
1020;SDS011;499;42.648;23.270;2023-04-03T03:44:47;0.90;;;0.80;;
1020;SDS011;499;42.648;23.270;2023-04-03T03:47:14;0.90;;;0.73;;
1020;SDS011;499;42.648;23.270;2023-04-03T03:49:42;0.93;;;0.80;;
1020;SDS011;499;42.648;23.270;2023-04-03T03:52:09;0.90;;;0.70;;
1020;SDS011;499;42.648;23.270;2023-04-03T03:54:36;0.90;;;0.80;;
1020;SDS011;499;42.648;23.270;2023-04-03T03:57:04;0.90;;;0.70;;
1020;SDS011;499;42.648;23.270;2023-04-03T03:59:31;0.90;;;0.80;;
1020;SDS011;499;42.648;23.270;2023-04-03T04:01:58;0.93;;;0.83;;
1020;SDS011;499;42.648;23.270;2023-04-03T04:04:25;0.90;;;0.80;;
1020;SDS011;499;42.648;23.270;2023-04-03T04:06:53;1.00;;;0.90;;
1020;SDS011;499;42.648;23.270;2023-04-03T04:09:20;0.90;;;0.80;;
1020;SDS011;499;42.648;23.270;2023-04-03T04:11:47;1.00;;;0.90;;
1020;SDS011;499;42.648;23.270;2023-04-03T04:14:14;1.00;;;0.80;;
1020;SDS011;499;42.648;23.270;2023-04-03T04:16:41;0.90;;;0.70;;
1020;SDS011;499;42.648;23.270;2023-04-03T04:19:08;0.90;;;0.77;;
1020;SDS011;499;42.648;23.270;2023-04-03T04:21:35;0.90;;;0.80;;
1020;SDS011;499;42.648;23.270;2023-04-03T04:24:04;0.90;;;0.80;;
1020;SDS011;499;42.648;23.270;2023-04-03T04:26:31;1.00;;;0.90;;
1020;SDS011;499;42.648;23.270;2023-04-03T04:28:58;0.90;;;0.80;;
1020;SDS011;499;42.648;23.270;2023-04-03T04:31:26;1.00;;;0.90;;
1020;SDS011;499;42.648;23.270;2023-04-03T04:33:53;0.90;;;0.80;;
1020;SDS011;499;42.648;23.270;2023-04-03T04:36:20;0.90;;;0.80;;
1020;SDS011;499;42.648;23.270;2023-04-03T04:38:47;0.90;;;0.80;;
1020;SDS011;499;42.648;23.270;2023-04-03T04:41:19;0.90;;;0.80;;
1020;SDS011;499;42.648;23.270;2023-04-03T04:43:47;0.90;;;0.80;;
1020;SDS011;499;42.648;23.270;2023-04-03T04:46:14;0.97;;;0.87;;
1020;SDS011;499;42.648;23.270;2023-04-03T04:48:42;0.90;;;0.80;;
1020;SDS011;499;42.648;23.270;2023-04-03T04:51:09;1.47;;;1.37;;
1020;SDS011;499;42.648;23.270;2023-04-03T04:53:36;0.93;;;0.83;;
1020;SDS011;499;42.648;23.270;2023-04-03T04:56:03;0.90;;;0.80;;
1020;SDS011;499;42.648;23.270;2023-04-03T04:58:32;0.93;;;0.80;;
1020;SDS011;499;42.648;23.270;2023-04-03T05:00:59;1.10;;;1.00;;
1020;SDS011;499;42.648;23.270;2023-04-03T05:03:27;0.90;;;0.80;;
1020;SDS011;499;42.648;23.270;2023-04-03T05:05:54;0.90;;;0.80;;
1020;SDS011;499;42.648;23.270;2023-04-03T05:08:21;0.90;;;0.70;;
1020;SDS011;499;42.648;23.270;2023-04-03T05:10:48;0.90;;;0.70;;
1020;SDS011;499;42.648;23.270;2023-04-03T05:13:16;0.90;;;0.70;;
1020;SDS011;499;42.648;23.270;2023-04-03T05:15:44;0.90;;;0.70;;
1020;SDS011;499;42.648;23.270;2023-04-03T05:18:12;0.93;;;0.80;;
1020;SDS011;499;42.648;23.270;2023-04-03T05:20:39;0.90;;;0.73;;
1020;SDS011;499;42.648;23.270;2023-04-03T05:23:08;1.00;;;0.80;;
1020;SDS011;499;42.648;23.270;2023-04-03T05:25:37;1.00;;;0.80;;
1020;SDS011;499;42.648;23.270;2023-04-03T05:28:04;1.40;;;1.10;;
1020;SDS011;499;42.648;23.270;2023-04-03T05:30:31;2.20;;;1.60;;
1020;SDS011;499;42.648;23.270;2023-04-03T05:32:59;1.70;;;1.50;;
1020;SDS011;499;42.648;23.270;2023-04-03T05:35:27;2.40;;;2.20;;
1020;SDS011;499;42.648;23.270;2023-04-03T05:37:54;1.00;;;0.90;;
1020;SDS011;499;42.648;23.270;2023-04-03T05:40:21;2.23;;;2.03;;
1020;SDS011;499;42.648;23.270;2023-04-03T05:42:48;2.90;;;2.27;;
1020;SDS011;499;42.648;23.270;2023-04-03T05:45:15;2.50;;;2.30;;
1020;SDS011;499;42.648;23.270;2023-04-03T05:47:42;5.53;;;3.70;;
1020;SDS011;499;42.648;23.270;2023-04-03T05:50:11;9.83;;;4.30;;
1020;SDS011;499;42.648;23.270;2023-04-03T05:52:39;5.73;;;3.07;;
1020;SDS011;499;42.648;23.270;2023-04-03T05:55:08;3.60;;;3.40;;
1020;SDS011;499;42.648;23.270;2023-04-03T05:57:36;18.83;;;10.60;;
1020;SDS011;499;42.648;23.270;2023-04-03T06:00:03;15.90;;;7.10;;
1020;SDS011;499;42.648;23.270;2023-04-03T06:02:31;2.37;;;1.97;;
1020;SDS011;499;42.648;23.270;2023-04-03T06:04:58;1.37;;;1.27;;
1020;SDS011;499;42.648;23.270;2023-04-03T06:07:26;1.10;;;0.80;;
1020;SDS011;499;42.648;23.270;2023-04-03T06:09:54;2.07;;;1.17;;
1020;SDS011;499;42.648;23.270;2023-04-03T06:12:22;3.43;;;3.00;;
1020;SDS011;499;42.648;23.270;2023-04-03T06:14:49;4.33;;;2.80;;
1020;SDS011;499;42.648;23.270;2023-04-03T06:17:17;6.60;;;4.77;;
1020;SDS011;499;42.648;23.270;2023-04-03T06:19:45;4.30;;;3.00;;
1020;SDS011;499;42.648;23.270;2023-04-03T06:22:12;5.23;;;3.60;;
1020;SDS011;499;42.648;23.270;2023-04-03T06:24:41;3.03;;;2.43;;
1020;SDS011;499;42.648;23.270;2023-04-03T06:27:09;4.03;;;2.63;;
1020;SDS011;499;42.648;23.270;2023-04-03T06:29:37;3.53;;;3.00;;
1020;SDS011;499;42.648;23.270;2023-04-03T06:32:04;3.17;;;2.87;;
1020;SDS011;499;42.648;23.270;2023-04-03T06:34:31;2.50;;;1.97;;
1020;SDS011;499;42.648;23.270;2023-04-03T06:36:59;3.30;;;3.00;;
1020;SDS011;499;42.648;23.270;2023-04-03T06:39:26;2.13;;;1.90;;
1020;SDS011;499;42.648;23.270;2023-04-03T06:41:54;2.30;;;2.07;;
1020;SDS011;499;42.648;23.270;2023-04-03T06:44:21;3.40;;;1.83;;
1020;SDS011;499;42.648;23.270;2023-04-03T06:46:48;2.73;;;2.20;;
1020;SDS011;499;42.648;23.270;2023-04-03T06:49:16;3.60;;;3.30;;
1020;SDS011;499;42.648;23.270;2023-04-03T06:51:43;2.57;;;2.00;;
1020;SDS011;499;42.648;23.270;2023-04-03T06:54:10;6.03;;;2.60;;
1020;SDS011;499;42.648;23.270;2023-04-03T06:56:37;6.40;;;3.70;;
1020;SDS011;499;42.648;23.270;2023-04-03T06:59:06;3.40;;;3.10;;
1020;SDS011;499;42.648;23.270;2023-04-03T07:01:33;3.63;;;3.20;;
1020;SDS011;499;42.648;23.270;2023-04-03T07:04:00;3.70;;;3.20;;
1020;SDS011;499;42.648;23.270;2023-04-03T07:06:27;3.10;;;2.80;;
1020;SDS011;499;42.648;23.270;2023-04-03T07:08:56;3.80;;;2.80;;
1020;SDS011;499;42.648;23.270;2023-04-03T07:11:23;3.33;;;2.87;;
1020;SDS011;499;42.648;23.270;2023-04-03T07:13:50;3.13;;;2.73;;
1020;SDS011;499;42.648;23.270;2023-04-03T07:16:18;3.20;;;2.57;;
1020;SDS011;499;42.648;23.270;2023-04-03T07:18:46;2.93;;;2.30;;
1020;SDS011;499;42.648;23.270;2023-04-03T07:21:13;3.30;;;3.00;;
1020;SDS011;499;42.648;23.270;2023-04-03T07:23:40;3.10;;;2.43;;
1020;SDS011;499;42.648;23.270;2023-04-03T07:26:07;3.90;;;3.10;;
1020;SDS011;499;42.648;23.270;2023-04-03T07:28:34;2.83;;;2.53;;
1020;SDS011;499;42.648;23.270;2023-04-03T07:31:03;2.50;;;2.30;;
1020;SDS011;499;42.648;23.270;2023-04-03T07:33:34;2.67;;;2.43;;
1020;SDS011;499;42.648;23.270;2023-04-03T07:36:02;2.53;;;2.07;;
1020;SDS011;499;42.648;23.270;2023-04-03T07:38:32;3.77;;;3.10;;
1020;SDS011;499;42.648;23.270;2023-04-03T07:41:00;3.07;;;2.73;;
1020;SDS011;499;42.648;23.270;2023-04-03T07:43:27;3.30;;;2.50;;
1020;SDS011;499;42.648;23.270;2023-04-03T07:45:54;4.03;;;2.77;;
1020;SDS011;499;42.648;23.270;2023-04-03T07:48:22;2.80;;;1.90;;
1020;SDS011;499;42.648;23.270;2023-04-03T07:50:51;2.67;;;2.30;;
1020;SDS011;499;42.648;23.270;2023-04-03T07:53:18;2.50;;;2.03;;
1020;SDS011;499;42.648;23.270;2023-04-03T07:55:46;2.20;;;1.83;;
1020;SDS011;499;42.648;23.270;2023-04-03T07:58:15;2.80;;;2.07;;
1020;SDS011;499;42.648;23.270;2023-04-03T08:00:43;2.93;;;2.40;;
1020;SDS011;499;42.648;23.270;2023-04-03T08:03:10;2.37;;;1.80;;
1020;SDS011;499;42.648;23.270;2023-04-03T08:05:39;2.50;;;2.07;;
1020;SDS011;499;42.648;23.270;2023-04-03T08:08:08;2.13;;;1.93;;
1020;SDS011;499;42.648;23.270;2023-04-03T08:10:36;3.30;;;3.00;;
1020;SDS011;499;42.648;23.270;2023-04-03T08:13:03;3.40;;;2.40;;
1020;SDS011;499;42.648;23.270;2023-04-03T08:15:33;1.77;;;1.57;;
1020;SDS011;499;42.648;23.270;2023-04-03T08:18:00;1.90;;;1.80;;
1020;SDS011;499;42.648;23.270;2023-04-03T08:20:27;2.27;;;1.73;;
1020;SDS011;499;42.648;23.270;2023-04-03T08:22:54;2.77;;;1.80;;
1020;SDS011;499;42.648;23.270;2023-04-03T08:25:23;2.50;;;2.30;;
1020;SDS011;499;42.648;23.270;2023-04-03T08:27:50;2.43;;;1.93;;
1020;SDS011;499;42.648;23.270;2023-04-03T08:30:17;4.60;;;2.90;;
1020;SDS011;499;42.648;23.270;2023-04-03T08:32:44;4.63;;;2.17;;
1020;SDS011;499;42.648;23.270;2023-04-03T08:35:11;2.50;;;1.97;;
1020;SDS011;499;42.648;23.270;2023-04-03T08:37:38;3.07;;;2.33;;
1020;SDS011;499;42.648;23.270;2023-04-03T08:40:07;3.70;;;3.07;;
1020;SDS011;499;42.648;23.270;2023-04-03T08:42:44;3.20;;;2.90;;
1020;SDS011;499;42.648;23.270;2023-04-03T08:45:18;2.93;;;2.60;;
1020;SDS011;499;42.648;23.270;2023-04-03T08:47:52;2.57;;;2.30;;
1020;SDS011;499;42.648;23.270;2023-04-03T08:50:26;2.50;;;2.20;;
1020;SDS011;499;42.648;23.270;2023-04-03T08:52:58;3.53;;;2.70;;
1020;SDS011;499;42.648;23.270;2023-04-03T08:55:28;2.73;;;2.17;;
1020;SDS011;499;42.648;23.270;2023-04-03T08:58:00;2.77;;;2.57;;
1020;SDS011;499;42.648;23.270;2023-04-03T09:00:30;3.70;;;3.17;;
1020;SDS011;499;42.648;23.270;2023-04-03T09:03:04;3.40;;;2.90;;
1020;SDS011;499;42.648;23.270;2023-04-03T09:05:35;3.90;;;3.50;;
1020;SDS011;499;42.648;23.270;2023-04-03T09:08:12;3.00;;;2.70;;
1020;SDS011;499;42.648;23.270;2023-04-03T09:10:47;3.60;;;2.80;;
1020;SDS011;499;42.648;23.270;2023-04-03T09:13:20;6.43;;;3.40;;
1020;SDS011;499;42.648;23.270;2023-04-03T09:15:55;2.83;;;2.20;;
1020;SDS011;499;42.648;23.270;2023-04-03T09:18:23;4.30;;;3.50;;
1020;SDS011;499;42.648;23.270;2023-04-03T09:20:58;3.57;;;2.87;;
1020;SDS011;499;42.648;23.270;2023-04-03T09:23:32;2.70;;;2.50;;
1020;SDS011;499;42.648;23.270;2023-04-03T09:26:13;4.13;;;2.70;;
1020;SDS011;499;42.648;23.270;2023-04-03T09:28:44;2.13;;;1.67;;
1020;SDS011;499;42.648;23.270;2023-04-03T09:31:15;3.80;;;2.73;;
1020;SDS011;499;42.648;23.270;2023-04-03T09:33:46;2.00;;;1.73;;
1020;SDS011;499;42.648;23.270;2023-04-03T09:39:10;1.90;;;1.20;;
1020;SDS011;499;42.648;23.270;2023-04-03T09:41:41;1.30;;;0.90;;
1020;SDS011;499;42.648;23.270;2023-04-03T09:44:23;1.40;;;0.90;;
1020;SDS011;499;42.648;23.270;2023-04-03T09:46:51;1.30;;;1.00;;
1020;SDS011;499;42.648;23.270;2023-04-03T09:49:18;1.10;;;0.70;;
1020;SDS011;499;42.648;23.270;2023-04-03T09:51:46;1.57;;;1.00;;
1020;SDS011;499;42.648;23.270;2023-04-03T09:54:30;1.40;;;0.70;;
1020;SDS011;499;42.648;23.270;2023-04-03T09:57:01;1.13;;;0.80;;
1020;SDS011;499;42.648;23.270;2023-04-03T09:59:34;1.13;;;0.70;;
1020;SDS011;499;42.648;23.270;2023-04-03T10:02:03;1.10;;;0.60;;
1020;SDS011;499;42.648;23.270;2023-04-03T10:04:46;1.83;;;0.93;;
1020;SDS011;499;42.648;23.270;2023-04-03T10:10:03;1.20;;;0.80;;
1020;SDS011;499;42.648;23.270;2023-04-03T10:12:43;1.50;;;0.80;;
1020;SDS011;499;42.648;23.270;2023-04-03T10:15:13;1.27;;;1.00;;
1020;SDS011;499;42.648;23.270;2023-04-03T10:17:47;1.47;;;1.13;;
1020;SDS011;499;42.648;23.270;2023-04-03T10:20:23;1.27;;;0.90;;
1020;SDS011;499;42.648;23.270;2023-04-03T10:23:00;1.83;;;0.90;;
1020;SDS011;499;42.648;23.270;2023-04-03T10:25:40;1.30;;;0.83;;
1020;SDS011;499;42.648;23.270;2023-04-03T10:28:10;1.20;;;0.90;;
1020;SDS011;499;42.648;23.270;2023-04-03T10:30:47;1.17;;;1.00;;
1020;SDS011;499;42.648;23.270;2023-04-03T10:33:22;1.10;;;0.80;;
1020;SDS011;499;42.648;23.270;2023-04-03T10:36:02;1.10;;;0.83;;
1020;SDS011;499;42.648;23.270;2023-04-03T10:38:39;1.30;;;0.90;;
1020;SDS011;499;42.648;23.270;2023-04-03T10:41:16;1.50;;;0.90;;
1020;SDS011;499;42.648;23.270;2023-04-03T10:43:50;1.70;;;1.10;;
1020;SDS011;499;42.648;23.270;2023-04-03T10:46:27;1.50;;;1.17;;
1020;SDS011;499;42.648;23.270;2023-04-03T10:49:05;1.23;;;0.90;;
1020;SDS011;499;42.648;23.270;2023-04-03T10:51:44;1.30;;;0.87;;
1020;SDS011;499;42.648;23.270;2023-04-03T10:54:14;1.20;;;0.90;;
1020;SDS011;499;42.648;23.270;2023-04-03T10:56:47;1.80;;;1.30;;
1020;SDS011;499;42.648;23.270;2023-04-03T10:59:18;1.20;;;1.00;;
1020;SDS011;499;42.648;23.270;2023-04-03T11:01:53;1.30;;;1.07;;
1020;SDS011;499;42.648;23.270;2023-04-03T11:04:22;1.30;;;1.13;;
1020;SDS011;499;42.648;23.270;2023-04-03T11:06:57;1.70;;;1.00;;
1020;SDS011;499;42.648;23.270;2023-04-03T11:09:28;1.27;;;1.13;;
1020;SDS011;499;42.648;23.270;2023-04-03T11:12:03;1.43;;;1.03;;
1020;SDS011;499;42.648;23.270;2023-04-03T11:14:33;1.90;;;1.30;;
1020;SDS011;499;42.648;23.270;2023-04-03T11:17:11;1.70;;;1.30;;
1020;SDS011;499;42.648;23.270;2023-04-03T11:19:46;1.67;;;1.20;;
1020;SDS011;499;42.648;23.270;2023-04-03T11:22:21;1.20;;;0.83;;
1020;SDS011;499;42.648;23.270;2023-04-03T11:24:55;1.17;;;0.93;;
1020;SDS011;499;42.648;23.270;2023-04-03T11:27:28;1.10;;;0.80;;
1020;SDS011;499;42.648;23.270;2023-04-03T11:30:02;1.30;;;1.03;;
1020;SDS011;499;42.648;23.270;2023-04-03T11:32:40;1.30;;;1.10;;
1020;SDS011;499;42.648;23.270;2023-04-03T11:35:28;2.20;;;1.73;;
1020;SDS011;499;42.648;23.270;2023-04-03T11:37:56;2.33;;;1.83;;
1020;SDS011;499;42.648;23.270;2023-04-03T11:40:25;2.80;;;1.60;;
1020;SDS011;499;42.648;23.270;2023-04-03T11:43:02;1.53;;;1.30;;
1020;SDS011;499;42.648;23.270;2023-04-03T11:45:34;1.80;;;1.60;;
1020;SDS011;499;42.648;23.270;2023-04-03T11:48:06;1.87;;;1.70;;
1020;SDS011;499;42.648;23.270;2023-04-03T11:50:53;2.27;;;1.67;;
1020;SDS011;499;42.648;23.270;2023-04-03T11:53:32;1.40;;;1.27;;
1020;SDS011;499;42.648;23.270;2023-04-03T11:56:01;1.90;;;1.73;;
1020;SDS011;499;42.648;23.270;2023-04-03T11:58:30;2.87;;;2.00;;
1020;SDS011;499;42.648;23.270;2023-04-03T12:01:03;2.23;;;1.80;;
1020;SDS011;499;42.648;23.270;2023-04-03T12:09:28;1.80;;;1.67;;
1020;SDS011;499;42.648;23.270;2023-04-03T12:12:07;2.47;;;2.00;;
1020;SDS011;499;42.648;23.270;2023-04-03T12:14:51;2.30;;;1.83;;
1020;SDS011;499;42.648;23.270;2023-04-03T12:17:20;2.33;;;2.13;;
1020;SDS011;499;42.648;23.270;2023-04-03T12:19:51;1.80;;;1.40;;
1020;SDS011;499;42.648;23.270;2023-04-03T12:22:20;1.63;;;1.53;;
1020;SDS011;499;42.648;23.270;2023-04-03T12:24:49;2.03;;;1.23;;
1020;SDS011;499;42.648;23.270;2023-04-03T12:30:19;1.40;;;1.10;;
1020;SDS011;499;42.648;23.270;2023-04-03T12:32:55;1.53;;;1.30;;
1020;SDS011;499;42.648;23.270;2023-04-03T12:35:43;2.43;;;2.23;;
1020;SDS011;499;42.648;23.270;2023-04-03T12:41:26;2.90;;;1.80;;
1020;SDS011;499;42.648;23.270;2023-04-03T12:44:06;1.70;;;1.60;;
1020;SDS011;499;42.648;23.270;2023-04-03T12:46:45;1.63;;;1.53;;
1020;SDS011;499;42.648;23.270;2023-04-03T12:49:22;1.40;;;1.23;;
1020;SDS011;499;42.648;23.270;2023-04-03T12:51:59;2.10;;;1.90;;
1020;SDS011;499;42.648;23.270;2023-04-03T12:54:31;1.30;;;1.20;;
1020;SDS011;499;42.648;23.270;2023-04-03T12:57:11;1.53;;;1.43;;
1020;SDS011;499;42.648;23.270;2023-04-03T12:59:39;1.60;;;1.20;;
1020;SDS011;499;42.648;23.270;2023-04-03T13:02:12;1.60;;;1.50;;
1020;SDS011;499;42.648;23.270;2023-04-03T13:04:48;1.60;;;1.50;;
1020;SDS011;499;42.648;23.270;2023-04-03T13:07:23;1.70;;;1.60;;
1020;SDS011;499;42.648;23.270;2023-04-03T13:09:59;2.47;;;1.27;;
1020;SDS011;499;42.648;23.270;2023-04-03T13:12:45;2.03;;;1.83;;
1020;SDS011;499;42.648;23.270;2023-04-03T13:15:14;1.90;;;1.80;;
1020;SDS011;499;42.648;23.270;2023-04-03T13:17:44;2.63;;;1.80;;
1020;SDS011;499;42.648;23.270;2023-04-03T13:20:14;1.57;;;1.47;;
1020;SDS011;499;42.648;23.270;2023-04-03T13:22:47;2.00;;;1.80;;
1020;SDS011;499;42.648;23.270;2023-04-03T13:25:20;1.90;;;1.70;;
1020;SDS011;499;42.648;23.270;2023-04-03T13:27:49;2.10;;;1.90;;
1020;SDS011;499;42.648;23.270;2023-04-03T13:30:21;2.33;;;2.13;;
1020;SDS011;499;42.648;23.270;2023-04-03T13:32:53;1.70;;;1.60;;
1020;SDS011;499;42.648;23.270;2023-04-03T13:35:29;2.63;;;2.13;;
1020;SDS011;499;42.648;23.270;2023-04-03T13:37:59;2.07;;;1.87;;
1020;SDS011;499;42.648;23.270;2023-04-03T13:40:30;1.70;;;1.40;;
1020;SDS011;499;42.648;23.270;2023-04-03T13:42:58;2.03;;;1.83;;
1020;SDS011;499;42.648;23.270;2023-04-03T13:45:27;1.47;;;1.37;;
1020;SDS011;499;42.648;23.270;2023-04-03T13:48:07;2.00;;;1.90;;
1020;SDS011;499;42.648;23.270;2023-04-03T13:50:50;1.30;;;1.10;;
1020;SDS011;499;42.648;23.270;2023-04-03T13:53:23;1.03;;;0.93;;
1020;SDS011;499;42.648;23.270;2023-04-03T13:55:55;1.30;;;1.20;;
1020;SDS011;499;42.648;23.270;2023-04-03T13:58:30;2.20;;;2.00;;
1020;SDS011;499;42.648;23.270;2023-04-03T14:01:00;1.33;;;1.23;;
1020;SDS011;499;42.648;23.270;2023-04-03T14:03:36;1.73;;;1.63;;
1020;SDS011;499;42.648;23.270;2023-04-03T14:06:08;1.20;;;1.10;;
1020;SDS011;499;42.648;23.270;2023-04-03T14:08:37;1.27;;;1.17;;
1020;SDS011;499;42.648;23.270;2023-04-03T14:11:05;1.27;;;1.17;;
1020;SDS011;499;42.648;23.270;2023-04-03T14:13:35;1.67;;;1.57;;
1020;SDS011;499;42.648;23.270;2023-04-03T14:16:02;1.40;;;1.30;;
1020;SDS011;499;42.648;23.270;2023-04-03T14:18:30;1.50;;;1.40;;
1020;SDS011;499;42.648;23.270;2023-04-03T14:20:57;1.63;;;1.53;;
1020;SDS011;499;42.648;23.270;2023-04-03T14:23:24;1.60;;;1.50;;
1020;SDS011;499;42.648;23.270;2023-04-03T14:25:51;1.60;;;1.50;;
1020;SDS011;499;42.648;23.270;2023-04-03T14:28:20;2.70;;;1.40;;
1020;SDS011;499;42.648;23.270;2023-04-03T14:30:48;1.67;;;1.40;;
1020;SDS011;499;42.648;23.270;2023-04-03T14:33:17;1.60;;;1.50;;
1020;SDS011;499;42.648;23.270;2023-04-03T14:35:46;1.30;;;1.20;;
1020;SDS011;499;42.648;23.270;2023-04-03T14:38:20;1.50;;;1.40;;
1020;SDS011;499;42.648;23.270;2023-04-03T14:40:50;1.40;;;1.30;;
1020;SDS011;499;42.648;23.270;2023-04-03T14:43:17;1.43;;;1.23;;
1020;SDS011;499;42.648;23.270;2023-04-03T14:45:47;2.27;;;1.57;;
1020;SDS011;499;42.648;23.270;2023-04-03T14:48:16;1.50;;;1.30;;
1020;SDS011;499;42.648;23.270;2023-04-03T14:50:47;1.30;;;1.20;;
1020;SDS011;499;42.648;23.270;2023-04-03T14:53:15;1.40;;;1.30;;
1020;SDS011;499;42.648;23.270;2023-04-03T14:55:44;1.70;;;1.60;;
1020;SDS011;499;42.648;23.270;2023-04-03T14:58:13;1.60;;;1.50;;
1020;SDS011;499;42.648;23.270;2023-04-03T15:00:42;1.70;;;1.60;;
1020;SDS011;499;42.648;23.270;2023-04-03T15:03:12;1.40;;;1.17;;
1020;SDS011;499;42.648;23.270;2023-04-03T15:05:41;1.30;;;1.17;;
1020;SDS011;499;42.648;23.270;2023-04-03T15:08:16;1.73;;;1.63;;
1020;SDS011;499;42.648;23.270;2023-04-03T15:10:45;1.20;;;1.10;;
1020;SDS011;499;42.648;23.270;2023-04-03T15:13:13;3.00;;;2.80;;
1020;SDS011;499;42.648;23.270;2023-04-03T15:15:41;4.57;;;2.07;;
1020;SDS011;499;42.648;23.270;2023-04-03T15:18:20;3.03;;;2.67;;
1020;SDS011;499;42.648;23.270;2023-04-03T15:20:49;1.30;;;1.07;;
1020;SDS011;499;42.648;23.270;2023-04-03T15:23:16;1.40;;;1.30;;
1020;SDS011;499;42.648;23.270;2023-04-03T15:25:43;1.40;;;1.30;;
1020;SDS011;499;42.648;23.270;2023-04-03T15:28:15;1.50;;;1.27;;
1020;SDS011;499;42.648;23.270;2023-04-03T15:30:46;1.80;;;1.40;;
1020;SDS011;499;42.648;23.270;2023-04-03T15:33:14;1.90;;;1.30;;
1020;SDS011;499;42.648;23.270;2023-04-03T15:35:41;1.33;;;1.23;;
1020;SDS011;499;42.648;23.270;2023-04-03T15:38:09;1.60;;;1.50;;
1020;SDS011;499;42.648;23.270;2023-04-03T15:40:36;1.50;;;1.37;;
1020;SDS011;499;42.648;23.270;2023-04-03T15:43:04;1.07;;;0.97;;
1020;SDS011;499;42.648;23.270;2023-04-03T15:45:31;1.83;;;1.43;;
1020;SDS011;499;42.648;23.270;2023-04-03T15:48:03;0.80;;;0.80;;
1020;SDS011;499;42.648;23.270;2023-04-03T15:50:31;1.53;;;1.43;;
1020;SDS011;499;42.648;23.270;2023-04-03T15:52:58;1.47;;;1.37;;
1020;SDS011;499;42.648;23.270;2023-04-03T15:55:27;1.77;;;1.50;;